Solidarnosc (vanuatu) — YJZC9 — position and weather

sailwx.info

Track history (hours):
 
Tides and Currents Weather Stations Pressure Air Temp Water Temp Dewpoint Dewpoint Depression Visibility Wind Speed Wind Dir Waves Ship Positions

Solidarnosc (vanuatu)

Last reported at 2015-May-24 06:06 UTC. Time now 2015-May-27 09:58 UTC.
Position N 49°22' E 000°59'.

Length 229 m; beam 32 m.

Type: Ship. MMSI: 576005000.

Date/timePositionNaut miles runAvg speedWind from/ knotsBaromVisibWave heightAir tempDewpointWater temp
2015-May-24 06:06N 49°22' E 000°59'6 0.1
2015-May-22 03:10N 49°25' E 000°52'3 4.5
2015-May-22 02:33N 49°27' E 000°49'6 5.4
2015-May-22 01:24N 49°29' E 000°40'6 7.5
2015-May-22 00:34N 49°29' E 000°30'1211.7
2015-May-21 23:34N 49°26' E 000°13'1211.6
2015-May-21 22:34N 49°29' W 000°04'3 3.4
2015-May-21 21:32N 49°28' W 000°09'0 0.1
2015-May-21 20:32N 49°28' W 000°09'0 0.1
2015-May-21 19:32N 49°28' W 000°09'0 0.1
2015-May-21 18:32N 49°28' W 000°09'0 0.0
2015-May-21 17:32N 49°28' W 000°09'0 0.0
2015-May-21 16:32N 49°28' W 000°09'0 0.0
2015-May-21 15:32N 49°28' W 000°09'0 0.1
2015-May-21 14:32N 49°28' W 000°09'0 0.1
2015-May-21 13:32N 49°28' W 000°09'0 0.1
2015-May-21 12:32N 49°28' W 000°09'0 0.1
2015-May-21 11:32N 49°29' W 000°09'0 0.0
2015-May-21 10:32N 49°29' W 000°09'0 0.1
2015-May-21 09:32N 49°28' W 000°09'0 0.1
2015-May-21 08:32N 49°28' W 000°09'0 0.1
2015-May-21 07:32N 49°28' W 000°09'0 0.1
2015-May-21 06:32N 49°28' W 000°09'0 0.0
2015-May-21 05:32N 49°28' W 000°09'0 0.0
2015-May-21 04:32N 49°28' W 000°09'0 0.0
2015-May-21 03:32N 49°28' W 000°09'0 0.1
2015-May-21 02:32N 49°28' W 000°09'0 0.1
2015-May-21 01:32N 49°28' W 000°09'0 0.1
2015-May-21 00:32N 49°28' W 000°09'0 0.1
2015-May-20 23:32N 49°28' W 000°09'0 0.1
2015-May-20 22:32N 49°29' W 000°09'0 0.0
2015-May-20 21:32N 49°28' W 000°09'0 0.1
2015-May-20 20:32N 49°28' W 000°09'0 0.1
2015-May-20 19:32N 49°28' W 000°09'0 0.1
2015-May-20 18:32N 49°28' W 000°09'0 0.1
2015-May-20 17:32N 49°28' W 000°09'0 0.0
2015-May-20 16:32N 49°28' W 000°09'0 0.0
2015-May-20 15:32N 49°28' W 000°09'0 0.1
2015-May-20 14:32N 49°28' W 000°09'0 0.1
2015-May-20 13:32N 49°28' W 000°09'0 0.0
2015-May-20 12:32N 49°28' W 000°09'0 0.0
2015-May-20 11:32N 49°28' W 000°09'0 0.0
2015-May-20 10:32N 49°28' W 000°09'0 0.0
2015-May-20 09:32N 49°28' W 000°09'0 0.1
2015-May-20 08:32N 49°28' W 000°09'0 0.1
2015-May-20 07:32N 49°28' W 000°09'0 0.1
2015-May-20 06:32N 49°28' W 000°09'0 0.0
2015-May-20 05:32N 49°28' W 000°09'0 0.0
2015-May-20 04:32N 49°28' W 000°09'0 0.0
2015-May-20 03:32N 49°28' W 000°09'0 0.0
2015-May-20 02:32N 49°28' W 000°09'0 0.1
2015-May-20 01:32N 49°28' W 000°09'0 0.1
2015-May-20 00:32N 49°28' W 000°09'0 0.0
2015-May-19 23:32N 49°29' W 000°09'0 0.0
2015-May-19 22:32N 49°29' W 000°09'0 0.0
2015-May-19 21:32N 49°29' W 000°09'0 0.0
2015-May-19 20:32N 49°29' W 000°09'0 0.1
2015-May-19 19:32N 49°28' W 000°09'0 0.0
2015-May-19 18:32N 49°28' W 000°09'0 0.0
2015-May-19 17:32N 49°28' W 000°09'0 0.1
2015-May-19 16:32N 49°28' W 000°09'0 0.0
2015-May-19 15:32N 49°28' W 000°09'0 0.1
2015-May-19 14:32N 49°29' W 000°09'0 0.1
2015-May-19 13:32N 49°29' W 000°09'0 0.1
2015-May-19 12:29N 49°29' W 000°09'0 0.1
2015-May-19 11:32N 49°28' W 000°09'0 0.1
2015-May-19 10:32N 49°29' W 000°09'0 0.0
2015-May-19 09:32N 49°29' W 000°09'0 0.0
2015-May-19 08:32N 49°29' W 000°09'0 0.1
2015-May-19 07:32N 49°28' W 000°09'0 0.0
2015-May-19 06:32N 49°28' W 000°09'0 0.1
2015-May-19 05:32N 49°29' W 000°09'0 0.2
2015-May-19 04:32N 49°29' W 000°09'0 0.0
2015-May-19 03:32N 49°29' W 000°09'0 0.1
2015-May-19 02:32N 49°29' W 000°09'0 0.1
2015-May-19 01:32N 49°29' W 000°09'0 0.0
2015-May-19 00:32N 49°29' W 000°09'0 0.1
2015-May-18 23:32N 49°29' W 000°09'0 0.0
2015-May-18 22:32N 49°29' W 000°09'0 0.0
2015-May-18 21:32N 49°29' W 000°09'0 0.0
2015-May-18 20:32N 49°29' W 000°09'0 0.0
2015-May-18 19:32N 49°29' W 000°09'0 0.1
2015-May-18 18:32N 49°28' W 000°09'0 0.0
2015-May-18 17:29N 49°28' W 000°09'0 0.1
2015-May-18 16:32N 49°28' W 000°09'0 0.0
2015-May-18 15:32N 49°28' W 000°09'0 0.2
2015-May-18 14:32N 49°29' W 000°09'0 0.1
2015-May-18 13:32N 49°29' W 000°09'0 0.1
2015-May-18 12:32N 49°29' W 000°09'0 0.1
2015-May-18 11:32N 49°29' W 000°09'0 0.0
2015-May-18 10:32N 49°29' W 000°09'0 0.0
2015-May-18 09:32N 49°29' W 000°09'0 0.0
2015-May-18 08:32N 49°29' W 000°09'0 0.0
2015-May-18 07:32N 49°29' W 000°09'0 0.1
2015-May-18 06:32N 49°28' W 000°09'0 0.2
2015-May-18 05:32N 49°28' W 000°09'0 0.0
2015-May-18 04:32N 49°28' W 000°10'0 0.0
2015-May-18 03:32N 49°29' W 000°10'0 0.0
2015-May-18 02:32N 49°29' W 000°10'0 0.1
2015-May-18 01:32N 49°29' W 000°10'0 0.1
2015-May-18 00:32N 49°29' W 000°09'0 0.0
2015-May-17 23:33N 49°29' W 000°09'2 2.1
2015-May-17 22:33N 49°30' W 000°11'1211.6
2015-May-17 21:33N 49°36' W 000°27'1313.0
2015-May-17 20:34N 49°41' W 000°45'2215.7
2015-May-17 19:10N 49°51' W 001°16'1516.6
2015-May-17 18:17N 49°53' W 001°38'11511.8
2015-May-17 08:33N 49°15' W 004°25'2811.3
2015-May-17 06:07N 49°01' W 005°01'2012.6
2015-May-17 04:33N 48°51' W 005°27'5213.0
2015-May-17 00:33N 48°07' W 006°07'  
2015-May-14 19:04N 39°10' W 009°51'5 9.6
2015-May-14 18:33N 39°05' W 009°51'11 9.9
2015-May-14 17:25N 38°54' W 009°51'8 9.8
2015-May-14 16:33N 38°45' W 009°52'1010.0
2015-May-14 15:33N 38°35' W 009°50'1110.6
2015-May-14 14:33N 38°25' W 009°46'1110.8
2015-May-14 13:33N 38°15' W 009°43'1110.7
2015-May-14 12:33N 38°04' W 009°40'1010.4
2015-May-14 11:33N 37°54' W 009°37'1010.1
2015-May-14 10:33N 37°44' W 009°34'1010.4
2015-May-14 09:33N 37°34' W 009°31'1010.1
2015-May-14 08:33N 37°24' W 009°28'1010.2
2015-May-14 07:33N 37°14' W 009°25'1010.1
2015-May-14 06:33N 37°05' W 009°22'  
Track history (hours):
 
Tides and Currents Weather Stations Pressure Air Temp Water Temp Dewpoint Dewpoint Depression Visibility Wind Speed Wind Dir Waves Ship Positions

Solidarnosc (vanuatu)

Last reported at 2015-May-24 06:06 UTC. Time now 2015-May-27 09:58 UTC.
Position N 49°22' E 000°59'.

Length 229 m; beam 32 m.

Type: Ship. MMSI: 576005000.

Date/timePositionNaut miles runAvg speedWind from/ knotsBaromVisibWave heightAir tempDewpointWater temp
2015-May-24 06:06N 49°22' E 000°59'6 0.1
2015-May-22 03:10N 49°25' E 000°52'3 4.5
2015-May-22 02:33N 49°27' E 000°49'6 5.4
2015-May-22 01:24N 49°29' E 000°40'6 7.5
2015-May-22 00:34N 49°29' E 000°30'1211.7
2015-May-21 23:34N 49°26' E 000°13'1211.6
2015-May-21 22:34N 49°29' W 000°04'3 3.4
2015-May-21 21:32N 49°28' W 000°09'0 0.1
2015-May-21 20:32N 49°28' W 000°09'0 0.1
2015-May-21 19:32N 49°28' W 000°09'0 0.1
2015-May-21 18:32N 49°28' W 000°09'0 0.0
2015-May-21 17:32N 49°28' W 000°09'0 0.0
2015-May-21 16:32N 49°28' W 000°09'0 0.0
2015-May-21 15:32N 49°28' W 000°09'0 0.1
2015-May-21 14:32N 49°28' W 000°09'0 0.1
2015-May-21 13:32N 49°28' W 000°09'0 0.1
2015-May-21 12:32N 49°28' W 000°09'0 0.1
2015-May-21 11:32N 49°29' W 000°09'0 0.0
2015-May-21 10:32N 49°29' W 000°09'0 0.1
2015-May-21 09:32N 49°28' W 000°09'0 0.1
2015-May-21 08:32N 49°28' W 000°09'0 0.1
2015-May-21 07:32N 49°28' W 000°09'0 0.1
2015-May-21 06:32N 49°28' W 000°09'0 0.0
2015-May-21 05:32N 49°28' W 000°09'0 0.0
2015-May-21 04:32N 49°28' W 000°09'0 0.0
2015-May-21 03:32N 49°28' W 000°09'0 0.1
2015-May-21 02:32N 49°28' W 000°09'0 0.1
2015-May-21 01:32N 49°28' W 000°09'0 0.1
2015-May-21 00:32N 49°28' W 000°09'0 0.1
2015-May-20 23:32N 49°28' W 000°09'0 0.1
2015-May-20 22:32N 49°29' W 000°09'0 0.0
2015-May-20 21:32N 49°28' W 000°09'0 0.1
2015-May-20 20:32N 49°28' W 000°09'0 0.1
2015-May-20 19:32N 49°28' W 000°09'0 0.1
2015-May-20 18:32N 49°28' W 000°09'0 0.1
2015-May-20 17:32N 49°28' W 000°09'0 0.0
2015-May-20 16:32N 49°28' W 000°09'0 0.0
2015-May-20 15:32N 49°28' W 000°09'0 0.1
2015-May-20 14:32N 49°28' W 000°09'0 0.1
2015-May-20 13:32N 49°28' W 000°09'0 0.0
2015-May-20 12:32N 49°28' W 000°09'0 0.0
2015-May-20 11:32N 49°28' W 000°09'0 0.0
2015-May-20 10:32N 49°28' W 000°09'0 0.0
2015-May-20 09:32N 49°28' W 000°09'0 0.1
2015-May-20 08:32N 49°28' W 000°09'0 0.1
2015-May-20 07:32N 49°28' W 000°09'0 0.1
2015-May-20 06:32N 49°28' W 000°09'0 0.0
2015-May-20 05:32N 49°28' W 000°09'0 0.0
2015-May-20 04:32N 49°28' W 000°09'0 0.0
2015-May-20 03:32N 49°28' W 000°09'0 0.0
2015-May-20 02:32N 49°28' W 000°09'0 0.1
2015-May-20 01:32N 49°28' W 000°09'0 0.1
2015-May-20 00:32N 49°28' W 000°09'0 0.0
2015-May-19 23:32N 49°29' W 000°09'0 0.0
2015-May-19 22:32N 49°29' W 000°09'0 0.0
2015-May-19 21:32N 49°29' W 000°09'0 0.0
2015-May-19 20:32N 49°29' W 000°09'0 0.1
2015-May-19 19:32N 49°28' W 000°09'0 0.0
2015-May-19 18:32N 49°28' W 000°09'0 0.0
2015-May-19 17:32N 49°28' W 000°09'0 0.1
2015-May-19 16:32N 49°28' W 000°09'0 0.0
2015-May-19 15:32N 49°28' W 000°09'0 0.1
2015-May-19 14:32N 49°29' W 000°09'0 0.1
2015-May-19 13:32N 49°29' W 000°09'0 0.1
2015-May-19 12:29N 49°29' W 000°09'0 0.1
2015-May-19 11:32N 49°28' W 000°09'0 0.1
2015-May-19 10:32N 49°29' W 000°09'0 0.0
2015-May-19 09:32N 49°29' W 000°09'0 0.0
2015-May-19 08:32N 49°29' W 000°09'0 0.1
2015-May-19 07:32N 49°28' W 000°09'0 0.0
2015-May-19 06:32N 49°28' W 000°09'0 0.1
2015-May-19 05:32N 49°29' W 000°09'0 0.2
2015-May-19 04:32N 49°29' W 000°09'0 0.0
2015-May-19 03:32N 49°29' W 000°09'0 0.1
2015-May-19 02:32N 49°29' W 000°09'0 0.1
2015-May-19 01:32N 49°29' W 000°09'0 0.0
2015-May-19 00:32N 49°29' W 000°09'0 0.1
2015-May-18 23:32N 49°29' W 000°09'0 0.0
2015-May-18 22:32N 49°29' W 000°09'0 0.0
2015-May-18 21:32N 49°29' W 000°09'0 0.0
2015-May-18 20:32N 49°29' W 000°09'0 0.0
2015-May-18 19:32N 49°29' W 000°09'0 0.1
2015-May-18 18:32N 49°28' W 000°09'0 0.0
2015-May-18 17:29N 49°28' W 000°09'0 0.1
2015-May-18 16:32N 49°28' W 000°09'0 0.0
2015-May-18 15:32N 49°28' W 000°09'0 0.2
2015-May-18 14:32N 49°29' W 000°09'0 0.1
2015-May-18 13:32N 49°29' W 000°09'0 0.1
2015-May-18 12:32N 49°29' W 000°09'0 0.1
2015-May-18 11:32N 49°29' W 000°09'0 0.0
2015-May-18 10:32N 49°29' W 000°09'0 0.0
2015-May-18 09:32N 49°29' W 000°09'0 0.0
2015-May-18 08:32N 49°29' W 000°09'0 0.0
2015-May-18 07:32N 49°29' W 000°09'0 0.1
2015-May-18 06:32N 49°28' W 000°09'0 0.2
2015-May-18 05:32N 49°28' W 000°09'0 0.0
2015-May-18 04:32N 49°28' W 000°10'0 0.0
2015-May-18 03:32N 49°29' W 000°10'0 0.0
2015-May-18 02:32N 49°29' W 000°10'0 0.1
2015-May-18 01:32N 49°29' W 000°10'0 0.1
2015-May-18 00:32N 49°29' W 000°09'0 0.0
2015-May-17 23:33N 49°29' W 000°09'2 2.1
2015-May-17 22:33N 49°30' W 000°11'1211.6
2015-May-17 21:33N 49°36' W 000°27'1313.0
2015-May-17 20:34N 49°41' W 000°45'2215.7
2015-May-17 19:10N 49°51' W 001°16'1516.6
2015-May-17 18:17N 49°53' W 001°38'11511.8
2015-May-17 08:33N 49°15' W 004°25'2811.3
2015-May-17 06:07N 49°01' W 005°01'2012.6
2015-May-17 04:33N 48°51' W 005°27'5213.0
2015-May-17 00:33N 48°07' W 006°07'  
2015-May-14 19:04N 39°10' W 009°51'5 9.6
2015-May-14 18:33N 39°05' W 009°51'11 9.9
2015-May-14 17:25N 38°54' W 009°51'8 9.8
2015-May-14 16:33N 38°45' W 009°52'1010.0
2015-May-14 15:33N 38°35' W 009°50'1110.6
2015-May-14 14:33N 38°25' W 009°46'1110.8
2015-May-14 13:33N 38°15' W 009°43'1110.7
2015-May-14 12:33N 38°04' W 009°40'1010.4
2015-May-14 11:33N 37°54' W 009°37'1010.1
2015-May-14 10:33N 37°44' W 009°34'1010.4
2015-May-14 09:33N 37°34' W 009°31'1010.1
2015-May-14 08:33N 37°24' W 009°28'1010.2
2015-May-14 07:33N 37°14' W 009°25'1010.1
2015-May-14 06:33N 37°05' W 009°22'  

Dump ship's entire track history